Time;durP1;ratioP1;P1;durP2;ratioP2;P2;SDS_P1;SDS_P2;PMS_P1;PMS_P2;Temp;Humidity;BMP_temperature;BMP_pressure;BME280_temperature;BME280_humidity;BME280_pressure;Samples;Min_cycle;Max_cycle;Signal;HPM_P1;HPM_P2
2023/08/12 00:01:39;;;;;;;107.80;3.20;;;24.70;41.60;;;;;;5053632;28;20754;-82
2023/08/12 00:04:05;;;;;;;107.77;3.37;;;24.70;41.40;;;;;;5053444;28;20761;-80
2023/08/12 00:06:30;;;;;;;109.53;3.30;;;24.70;41.30;;;;;;5053329;28;20174;-80
2023/08/12 00:08:56;;;;;;;106.97;2.63;;;24.60;42.60;;;;;;5053517;28;20208;-81
2023/08/12 00:11:21;;;;;;;107.57;2.97;;;24.50;42.60;;;;;;5056961;28;20174;-81
2023/08/12 00:13:47;;;;;;;107.67;3.20;;;24.40;42.70;;;;;;5034169;28;20192;-80
2023/08/12 00:16:12;;;;;;;108.47;3.60;;;24.30;43.20;;;;;;5051988;28;20178;-81
2023/08/12 00:18:38;;;;;;;109.03;3.47;;;24.30;44.10;;;;;;5052491;28;20176;-80
2023/08/12 00:21:09;;;;;;;107.57;3.20;;;24.20;43.90;;;;;;5052903;28;20187;-81
2023/08/12 00:23:39;;;;;;;108.00;3.40;;;24.30;43.70;;;;;;5056228;28;20707;-80
2023/08/12 00:26:05;;;;;;;107.90;3.27;;;24.30;43.40;;;;;;5055521;28;20410;-80
2023/08/12 00:28:31;;;;;;;107.50;3.00;;;24.20;43.70;;;;;;5059157;28;20983;-80
2023/08/12 00:30:56;;;;;;;107.67;2.87;;;24.20;43.50;;;;;;5059276;28;20207;-80
2023/08/12 00:33:22;;;;;;;107.67;3.13;;;24.10;44.10;;;;;;5058845;28;20274;-80
2023/08/12 00:35:47;;;;;;;108.83;3.43;;;24.10;44.00;;;;;;5058483;28;20201;-79
2023/08/12 00:38:13;;;;;;;109.20;3.40;;;23.90;44.50;;;;;;5058760;28;20565;-80
2023/08/12 00:40:38;;;;;;;107.10;2.60;;;23.90;44.40;;;;;;5058814;28;20180;-80
2023/08/12 00:43:04;;;;;;;107.07;2.60;;;24.10;44.70;;;;;;5059073;28;20643;-80
2023/08/12 00:45:30;;;;;;;108.17;3.20;;;24.30;43.40;;;;;;5061914;28;20187;-80
2023/08/12 00:47:55;;;;;;;108.30;3.40;;;24.00;44.80;;;;;;5058807;28;20197;-79
2023/08/12 00:50:21;;;;;;;107.13;2.70;;;23.90;44.60;;;;;;5058655;28;20173;-80
2023/08/12 00:52:48;;;;;;;106.97;2.70;;;24.00;43.60;;;;;;5058306;28;20210;-80
2023/08/12 00:55:14;;;;;;;107.87;3.20;;;24.20;43.40;;;;;;5058184;28;20491;-80
2023/08/12 00:57:39;;;;;;;107.27;2.70;;;24.10;43.80;;;;;;5058450;28;20418;-80
2023/08/12 01:00:06;;;;;;;107.40;2.70;;;24.10;44.30;;;;;;5058911;28;20266;-80
2023/08/12 01:02:32;;;;;;;107.60;3.10;;;24.20;43.30;;;;;;5058607;28;20179;-80
2023/08/12 01:04:58;;;;;;;108.37;3.00;;;24.30;43.00;;;;;;5057892;28;21029;-79
2023/08/12 01:07:24;;;;;;;107.60;3.03;;;24.00;43.50;;;;;;5057816;28;20204;-80
2023/08/12 01:09:49;;;;;;;108.20;3.40;;;23.80;43.70;;;;;;5057976;28;20410;-80
2023/08/12 01:12:24;;;;;;;107.30;2.70;;;23.80;44.30;;;;;;5057738;28;20635;-80
2023/08/12 01:15:13;;;;;;;108.07;3.30;;;23.70;44.70;;;;;;5057549;28;20195;-80
2023/08/12 01:17:42;;;;;;;107.60;2.90;;;23.60;45.10;;;;;;5058469;28;20468;-80
2023/08/12 01:20:08;;;;;;;108.43;3.20;;;23.70;45.10;;;;;;5057737;28;20472;-79
2023/08/12 01:22:39;;;;;;;108.37;3.33;;;23.80;45.20;;;;;;5058124;28;20418;-79
2023/08/12 01:25:05;;;;;;;110.77;3.43;;;23.70;45.10;;;;;;5057651;28;20448;-80
2023/08/12 01:27:31;;;;;;;107.90;2.93;;;23.80;45.00;;;;;;5057907;28;20461;-80
2023/08/12 01:29:57;;;;;;;109.07;3.20;;;23.90;44.30;;;;;;5057515;28;20425;-80
2023/08/12 01:32:36;;;;;;;108.37;3.33;;;23.60;45.00;;;;;;5057341;28;20589;-79
2023/08/12 01:35:20;;;;;;;108.27;3.27;;;23.60;45.00;;;;;;5057483;28;20463;-80
2023/08/12 01:37:47;;;;;;;107.47;2.90;;;23.60;45.10;;;;;;5056412;28;20409;-80
2023/08/12 01:40:15;;;;;;;108.67;3.60;;;23.60;45.00;;;;;;5057141;28;20605;-79
2023/08/12 01:42:41;;;;;;;107.90;3.10;;;23.50;45.80;;;;;;5053715;28;20429;-80
2023/08/12 01:45:07;;;;;;;108.00;3.13;;;23.60;45.00;;;;;;5053573;28;20433;-80
2023/08/12 01:47:33;;;;;;;108.00;3.17;;;23.60;45.00;;;;;;5056276;28;20454;-80
2023/08/12 01:49:58;;;;;;;108.03;3.13;;;23.60;45.00;;;;;;5057179;28;20420;-79
2023/08/12 01:52:24;;;;;;;107.87;2.90;;;23.40;45.20;;;;;;5057178;28;20176;-80
2023/08/12 01:54:50;;;;;;;107.67;2.73;;;23.30;45.70;;;;;;5057077;28;20279;-80
2023/08/12 01:57:16;;;;;;;108.10;3.00;;;23.30;46.10;;;;;;5056757;28;20449;-80
2023/08/12 01:59:43;;;;;;;109.27;3.27;;;23.30;47.00;;;;;;5056860;28;20197;-81
2023/08/12 02:02:09;;;;;;;107.80;3.00;;;23.30;45.90;;;;;;5057149;28;20658;-79
2023/08/12 02:04:37;;;;;;;107.97;3.23;;;23.10;46.50;;;;;;5056110;28;20543;-80
2023/08/12 02:07:03;;;;;;;108.47;3.17;;;23.20;46.90;;;;;;5050302;28;20616;-79
2023/08/12 02:09:28;;;;;;;113.10;3.20;;;23.30;46.40;;;;;;5056595;28;20474;-79
2023/08/12 02:11:54;;;;;;;108.17;3.07;;;23.40;46.60;;;;;;5057032;28;20412;-79
2023/08/12 02:14:19;;;;;;;108.27;3.00;;;23.40;46.30;;;;;;5056955;28;20201;-80
2023/08/12 02:16:45;;;;;;;108.17;2.97;;;23.50;46.00;;;;;;5057360;28;20178;-80
2023/08/12 02:19:11;;;;;;;107.77;2.60;;;23.60;45.70;;;;;;5056615;28;20166;-80
2023/08/12 02:21:36;;;;;;;108.03;2.83;;;23.50;46.00;;;;;;5052338;28;20538;-80
2023/08/12 02:24:02;;;;;;;108.40;3.10;;;23.50;45.30;;;;;;5058722;28;20195;-80
2023/08/12 02:26:28;;;;;;;108.20;3.03;;;23.40;45.80;;;;;;5056235;28;20206;-79
2023/08/12 02:28:53;;;;;;;110.23;3.80;;;22.30;44.10;;;;;;5057625;28;20716;-81
2023/08/12 02:31:19;;;;;;;108.30;3.30;;;23.60;45.10;;;;;;5058385;28;20225;-81
2023/08/12 02:33:44;;;;;;;109.37;2.90;;;23.60;44.60;;;;;;5059074;28;20259;-81
2023/08/12 02:36:10;;;;;;;108.50;3.70;;;23.30;44.70;;;;;;5053367;28;20212;-82
2023/08/12 02:38:36;;;;;;;108.37;3.20;;;22.80;46.20;;;;;;5058726;28;20709;-82
2023/08/12 02:41:01;;;;;;;109.00;2.93;;;22.80;48.10;;;;;;5058402;28;20189;-81
2023/08/12 02:43:27;;;;;;;108.77;3.40;;;23.10;47.20;;;;;;5058894;28;20195;-81
2023/08/12 02:45:52;;;;;;;108.10;3.20;;;23.20;46.40;;;;;;5057755;28;20173;-82
2023/08/12 02:48:18;;;;;;;109.97;3.07;;;23.50;45.40;;;;;;5053177;28;20261;-82
2023/08/12 02:50:44;;;;;;;108.10;3.10;;;23.40;46.90;;;;;;5058721;28;20179;-82
2023/08/12 02:53:09;;;;;;;107.90;3.00;;;23.40;46.90;;;;;;5058152;28;20688;-82
2023/08/12 02:55:36;;;;;;;107.70;2.90;;;23.40;46.20;;;;;;5058528;28;20182;-82
2023/08/12 02:58:03;;;;;;;108.60;3.40;;;23.50;45.80;;;;;;5058248;28;20611;-82
2023/08/12 03:00:28;;;;;;;108.70;3.27;;;23.50;46.10;;;;;;5057698;28;20419;-82
2023/08/12 03:02:54;;;;;;;108.40;3.40;;;23.40;46.00;;;;;;5057816;28;20412;-82
2023/08/12 03:05:20;;;;;;;108.60;2.93;;;23.40;45.80;;;;;;5057195;28;20181;-82
2023/08/12 03:07:46;;;;;;;109.23;3.03;;;23.40;46.50;;;;;;5057639;28;20202;-82
2023/08/12 03:10:12;;;;;;;107.50;2.70;;;23.50;47.40;;;;;;5057005;28;20434;-81
2023/08/12 03:12:37;;;;;;;108.37;2.70;;;23.40;46.40;;;;;;5058187;28;20175;-82
2023/08/12 03:15:03;;;;;;;108.67;3.53;;;23.40;45.80;;;;;;5056970;28;20194;-82
2023/08/12 03:17:29;;;;;;;107.83;2.90;;;23.50;47.10;;;;;;5057351;28;20186;-82
2023/08/12 03:19:59;;;;;;;108.03;3.10;;;23.40;46.80;;;;;;5057469;28;20436;-82
2023/08/12 03:22:25;;;;;;;108.13;3.20;;;23.40;46.10;;;;;;5058541;28;20413;-81
2023/08/12 03:24:50;;;;;;;107.83;2.90;;;23.50;45.50;;;;;;5058076;28;20536;-81
2023/08/12 03:27:16;;;;;;;108.20;2.93;;;23.50;44.90;;;;;;5057477;28;20804;-81
2023/08/12 03:29:41;;;;;;;108.37;3.27;;;23.50;45.40;;;;;;5058383;28;20588;-82
2023/08/12 03:32:07;;;;;;;108.13;2.93;;;23.60;46.20;;;;;;5052322;28;20183;-81
2023/08/12 03:34:33;;;;;;;108.43;3.40;;;22.60;46.40;;;;;;5051959;28;20184;-82
2023/08/12 03:36:58;;;;;;;109.67;3.50;;;22.50;48.60;;;;;;5053855;28;20166;-82
2023/08/12 03:39:24;;;;;;;107.80;3.20;;;21.50;52.40;;;;;;5053634;28;20207;-81
2023/08/12 03:41:50;;;;;;;107.80;2.93;;;21.50;53.40;;;;;;5052660;28;20183;-82
2023/08/12 03:44:16;;;;;;;112.60;3.23;;;21.40;54.30;;;;;;5052510;28;20246;-82
2023/08/12 03:46:42;;;;;;;108.63;3.50;;;21.90;51.70;;;;;;5034109;28;20178;-82
2023/08/12 03:49:08;;;;;;;108.20;3.03;;;22.20;50.60;;;;;;5054062;28;20417;-82
2023/08/12 03:51:33;;;;;;;108.20;3.20;;;22.40;50.10;;;;;;5057756;28;20175;-81
2023/08/12 03:53:59;;;;;;;107.70;2.90;;;22.80;48.00;;;;;;5040842;28;20437;-82
2023/08/12 03:56:24;;;;;;;108.50;3.50;;;23.10;47.70;;;;;;5059072;28;20175;-82
2023/08/12 03:58:50;;;;;;;107.93;3.00;;;23.20;47.20;;;;;;5058211;28;20186;-81
2023/08/12 04:01:16;;;;;;;108.10;3.03;;;23.40;46.50;;;;;;5060955;28;20177;-82
2023/08/12 04:03:42;;;;;;;108.57;3.27;;;23.40;46.50;;;;;;5058108;28;20458;-81
2023/08/12 04:06:07;;;;;;;108.37;3.17;;;23.50;46.10;;;;;;5058361;28;20242;-82
2023/08/12 04:08:34;;;;;;;108.07;3.20;;;23.50;45.50;;;;;;5058022;28;20206;-81
2023/08/12 04:10:59;;;;;;;107.80;2.97;;;23.50;44.90;;;;;;5057521;28;20171;-81
2023/08/12 04:13:25;;;;;;;108.30;3.43;;;23.80;43.30;;;;;;5057614;28;20448;-81
2023/08/12 04:15:53;;;;;;;108.17;3.20;;;23.70;43.60;;;;;;5057646;28;20174;-82
2023/08/12 04:18:19;;;;;;;108.67;3.30;;;23.70;45.10;;;;;;5057683;28;20545;-82
2023/08/12 04:20:52;;;;;;;107.87;2.93;;;23.60;45.00;;;;;;5057182;28;20460;-81
2023/08/12 04:23:18;;;;;;;108.67;3.57;;;23.50;46.20;;;;;;5057784;28;20460;-81
2023/08/12 04:25:45;;;;;;;108.27;3.23;;;23.50;46.40;;;;;;5057752;28;20418;-82
2023/08/12 04:28:11;;;;;;;109.00;2.93;;;23.50;46.80;;;;;;5058304;28;20460;-81
2023/08/12 04:30:44;;;;;;;108.10;3.10;;;23.50;46.20;;;;;;5058082;28;20420;-81
2023/08/12 04:33:09;;;;;;;107.87;3.17;;;23.60;45.50;;;;;;5057704;28;20495;-81
2023/08/12 04:35:35;;;;;;;107.97;3.17;;;23.50;46.00;;;;;;5057946;28;20975;-82
2023/08/12 04:38:01;;;;;;;108.27;3.40;;;23.50;46.00;;;;;;5057775;28;20217;-82
2023/08/12 04:40:27;;;;;;;108.90;3.67;;;23.50;46.30;;;;;;5054033;28;20204;-81
2023/08/12 04:42:52;;;;;;;108.20;3.20;;;23.60;46.00;;;;;;5049701;28;20433;-81
2023/08/12 04:45:18;;;;;;;107.60;2.87;;;23.70;45.10;;;;;;5053759;28;20191;-81
2023/08/12 04:47:43;;;;;;;107.73;2.77;;;23.70;45.10;;;;;;5055609;28;20197;-82
2023/08/12 04:50:09;;;;;;;109.00;3.23;;;23.70;45.60;;;;;;5053237;28;20184;-82
2023/08/12 04:52:35;;;;;;;108.20;2.97;;;23.70;46.40;;;;;;5056080;28;20182;-82
2023/08/12 04:55:00;;;;;;;107.47;2.67;;;23.60;46.10;;;;;;5054021;28;20566;-82
2023/08/12 04:57:26;;;;;;;108.60;3.40;;;23.60;46.50;;;;;;5054058;28;20198;-81
2023/08/12 04:59:52;;;;;;;108.57;3.23;;;23.70;47.60;;;;;;5055456;28;20183;-81
2023/08/12 05:02:20;;;;;;;108.10;2.90;;;23.80;46.40;;;;;;5055923;28;20168;-81
2023/08/12 05:04:49;;;;;;;108.17;3.20;;;23.90;45.30;;;;;;5056563;28;20529;-82
2023/08/12 05:07:15;;;;;;;108.10;3.20;;;24.20;44.20;;;;;;5056858;28;20473;-82
2023/08/12 05:09:43;;;;;;;109.00;3.47;;;24.10;44.40;;;;;;5056628;28;20437;-82
2023/08/12 05:12:09;;;;;;;107.70;3.00;;;24.10;44.70;;;;;;5056948;28;20434;-82
2023/08/12 05:14:35;;;;;;;109.57;3.33;;;24.10;45.20;;;;;;5059252;28;20427;-81
2023/08/12 05:17:00;;;;;;;107.30;2.70;;;24.10;44.70;;;;;;5060127;28;20421;-82
2023/08/12 05:19:26;;;;;;;107.87;3.10;;;24.10;45.50;;;;;;5041998;28;20182;-82
2023/08/12 05:21:52;;;;;;;109.07;3.13;;;24.10;45.50;;;;;;5059583;28;20175;-81
2023/08/12 05:24:17;;;;;;;107.77;2.93;;;24.30;45.70;;;;;;5060741;28;20187;-81
2023/08/12 05:26:43;;;;;;;108.27;3.40;;;23.70;44.50;;;;;;5060369;28;20518;-82
2023/08/12 05:29:09;;;;;;;107.73;2.90;;;23.10;46.90;;;;;;5060346;28;20208;-82
2023/08/12 05:31:34;;;;;;;107.77;3.13;;;23.10;47.30;;;;;;5059545;28;20611;-81
2023/08/12 05:34:00;;;;;;;107.50;2.93;;;23.60;47.50;;;;;;5060041;28;20464;-82
2023/08/12 05:36:25;;;;;;;108.80;3.50;;;23.90;47.00;;;;;;5059759;28;20170;-81
2023/08/12 05:38:51;;;;;;;108.30;3.10;;;24.20;46.80;;;;;;5059353;28;20177;-82
2023/08/12 05:41:16;;;;;;;107.70;3.20;;;24.40;45.80;;;;;;5054445;28;20200;-82
2023/08/12 05:43:42;;;;;;;107.50;2.70;;;24.40;45.80;;;;;;5054163;28;20195;-82
2023/08/12 05:46:08;;;;;;;107.53;2.77;;;23.80;45.20;;;;;;5053731;28;20172;-82
2023/08/12 05:48:33;;;;;;;107.90;3.20;;;23.60;47.00;;;;;;5054125;28;20692;-81
2023/08/12 05:50:59;;;;;;;107.77;3.20;;;23.10;48.30;;;;;;5054159;28;20222;-82
2023/08/12 05:53:24;;;;;;;108.70;3.63;;;23.00;48.60;;;;;;5052907;28;20213;-81
2023/08/12 05:55:50;;;;;;;107.53;2.90;;;23.60;48.20;;;;;;5059261;28;20178;-81
2023/08/12 05:58:15;;;;;;;107.77;3.10;;;24.10;46.60;;;;;;5052428;28;20186;-81
2023/08/12 06:00:45;;;;;;;108.07;3.37;;;24.30;46.00;;;;;;5059408;28;20564;-82
2023/08/12 06:03:11;;;;;;;108.10;3.03;;;24.40;45.70;;;;;;5059847;28;20206;-82
2023/08/12 06:05:37;;;;;;;108.67;3.40;;;24.30;45.60;;;;;;5059393;28;20416;-82
2023/08/12 06:08:02;;;;;;;107.40;3.13;;;24.60;46.40;;;;;;5056060;28;20491;-82
2023/08/12 06:10:28;;;;;;;107.40;2.90;;;24.80;47.10;;;;;;5058445;28;20265;-81
2023/08/12 06:12:53;;;;;;;107.77;3.30;;;24.80;46.10;;;;;;5058735;28;20182;-81
2023/08/12 06:15:19;;;;;;;107.97;3.40;;;24.40;46.10;;;;;;5059222;28;20173;-82
2023/08/12 06:17:45;;;;;;;107.53;3.10;;;24.60;46.80;;;;;;5059085;28;20182;-82
2023/08/12 06:20:11;;;;;;;107.23;3.00;;;24.90;46.20;;;;;;5058743;28;20177;-82
2023/08/12 06:22:37;;;;;;;109.37;3.63;;;25.00;45.10;;;;;;5058642;28;20951;-82
2023/08/12 06:25:03;;;;;;;107.07;3.03;;;24.30;46.00;;;;;;5058698;28;20429;-82
2023/08/12 06:27:29;;;;;;;107.90;3.10;;;21.30;44.60;;;;;;5058995;28;20203;-82
2023/08/12 06:29:54;;;;;;;108.87;3.87;;;24.10;47.80;;;;;;5058120;28;20421;-81
2023/08/12 06:32:20;;;;;;;107.47;3.10;;;23.70;49.70;;;;;;5058804;28;20171;-82
2023/08/12 06:34:45;;;;;;;107.77;3.57;;;23.80;49.70;;;;;;5057889;28;20198;-82
2023/08/12 06:37:11;;;;;;;107.23;2.83;;;24.50;48.50;;;;;;5058794;28;20210;-81
2023/08/12 06:39:36;;;;;;;107.10;3.20;;;25.10;45.80;;;;;;5058450;28;20175;-82
2023/08/12 06:42:03;;;;;;;107.63;3.33;;;25.40;42.60;;;;;;5057891;28;20274;-82
2023/08/12 06:44:29;;;;;;;108.47;3.50;;;25.30;42.20;;;;;;5058079;28;20239;-82
2023/08/12 06:46:54;;;;;;;108.20;3.63;;;25.50;41.90;;;;;;5058293;28;20464;-81
2023/08/12 06:49:20;;;;;;;107.83;3.43;;;25.50;41.90;;;;;;5059999;28;20184;-82
2023/08/12 06:51:45;;;;;;;107.80;3.00;;;25.30;42.50;;;;;;5058107;28;20179;-82
2023/08/12 06:54:11;;;;;;;107.27;3.40;;;25.70;42.40;;;;;;5057983;28;20198;-81
2023/08/12 06:56:36;;;;;;;106.87;3.00;;;26.00;42.50;;;;;;5057770;28;20232;-82
2023/08/12 06:59:02;;;;;;;106.90;2.83;;;25.80;42.20;;;;;;5058041;28;20180;-81
2023/08/12 07:01:27;;;;;;;106.60;2.90;;;25.70;43.00;;;;;;5057863;28;20191;-82
2023/08/12 07:03:53;;;;;;;107.67;3.23;;;25.80;43.80;;;;;;5069973;28;20283;-81
2023/08/12 07:06:19;;;;;;;106.67;2.87;;;26.00;42.40;;;;;;5072606;28;20177;-82
2023/08/12 07:08:44;;;;;;;106.97;3.13;;;25.90;43.10;;;;;;5074886;28;20693;-82
2023/08/12 07:11:10;;;;;;;107.27;3.00;;;25.30;44.90;;;;;;5076813;28;20672;-82
2023/08/12 07:13:35;;;;;;;107.40;3.00;;;25.00;46.30;;;;;;5075746;28;20245;-82
2023/08/12 07:16:01;;;;;;;107.47;3.10;;;25.50;46.60;;;;;;5065692;28;20172;-82
2023/08/12 07:18:27;;;;;;;106.77;3.00;;;25.90;44.80;;;;;;5052329;28;20191;-82
2023/08/12 07:20:52;;;;;;;107.00;2.97;;;25.80;42.30;;;;;;5052507;28;20176;-82
2023/08/12 07:23:18;;;;;;;106.80;3.20;;;25.50;44.30;;;;;;5059730;28;20734;-82
2023/08/12 07:25:48;;;;;;;106.53;3.00;;;25.30;44.70;;;;;;5057023;28;20639;-81
2023/08/12 07:28:14;;;;;;;106.77;3.10;;;25.30;44.50;;;;;;5056991;28;20196;-81
2023/08/12 07:30:39;;;;;;;107.60;3.30;;;24.90;45.20;;;;;;5057634;28;20460;-81
2023/08/12 07:33:05;;;;;;;106.80;3.07;;;24.70;45.70;;;;;;5057658;28;20846;-82
2023/08/12 07:35:30;;;;;;;107.57;3.67;;;24.70;44.40;;;;;;5056381;28;20172;-82
2023/08/12 07:37:56;;;;;;;106.97;2.80;;;24.70;43.60;;;;;;5057940;28;20243;-82
2023/08/12 07:40:22;;;;;;;107.07;3.03;;;24.60;44.20;;;;;;5057171;28;20186;-82
2023/08/12 07:42:47;;;;;;;106.87;3.03;;;25.10;43.20;;;;;;5057374;28;20175;-82
2023/08/12 07:45:13;;;;;;;106.70;3.13;;;25.90;43.00;;;;;;5056247;28;20203;-82
2023/08/12 07:47:39;;;;;;;106.87;3.10;;;25.50;43.00;;;;;;5056990;28;20195;-82
2023/08/12 07:50:05;;;;;;;106.30;2.83;;;25.70;42.80;;;;;;5056821;28;20175;-82
2023/08/12 07:52:31;;;;;;;106.77;3.00;;;26.00;42.60;;;;;;5055803;28;20172;-82
2023/08/12 07:54:56;;;;;;;107.03;3.30;;;26.70;40.30;;;;;;5055819;28;20920;-82
2023/08/12 07:57:24;;;;;;;107.93;3.47;;;27.30;38.60;;;;;;5056041;28;20186;-82
2023/08/12 07:59:50;;;;;;;107.50;3.23;;;31.70;40.70;;;;;;5055288;28;20171;-82
2023/08/12 08:02:16;;;;;;;106.37;2.90;;;27.50;39.10;;;;;;5055945;28;20414;-82
2023/08/12 08:04:41;;;;;;;106.17;3.00;;;27.40;37.80;;;;;;5055791;28;20457;-82
2023/08/12 08:07:07;;;;;;;106.10;3.10;;;27.40;37.60;;;;;;5056584;28;20191;-81
2023/08/12 08:09:33;;;;;;;106.03;3.00;;;27.50;38.50;;;;;;5055994;28;20519;-81
2023/08/12 08:12:00;;;;;;;107.43;3.27;;;26.90;39.20;;;;;;5055268;28;20194;-82
2023/08/12 08:14:27;;;;;;;107.87;3.40;;;26.90;39.80;;;;;;5055628;28;20438;-81
2023/08/12 08:16:53;;;;;;;107.00;3.20;;;26.90;39.30;;;;;;5054761;28;20815;-82
2023/08/12 08:19:18;;;;;;;106.63;3.27;;;26.70;40.50;;;;;;5054876;28;20477;-82
2023/08/12 08:21:44;;;;;;;106.40;3.30;;;26.70;40.20;;;;;;5056086;28;20232;-82
2023/08/12 08:24:12;;;;;;;106.30;3.20;;;26.80;39.50;;;;;;5055615;28;20226;-82
2023/08/12 08:26:41;;;;;;;106.17;3.20;;;27.10;39.20;;;;;;5055520;28;20435;-82
2023/08/12 08:29:06;;;;;;;106.07;3.10;;;27.40;37.30;;;;;;5055635;28;20825;-81
2023/08/12 08:31:32;;;;;;;106.63;3.30;;;27.40;37.70;;;;;;5055448;28;20410;-82
2023/08/12 08:33:58;;;;;;;106.57;3.23;;;27.70;37.40;;;;;;5055479;28;20188;-81
2023/08/12 08:36:24;;;;;;;106.77;3.57;;;28.20;36.80;;;;;;5054823;28;20172;-82
2023/08/12 08:38:50;;;;;;;106.07;3.10;;;28.20;35.70;;;;;;5056621;28;20172;-82
2023/08/12 08:41:16;;;;;;;106.20;3.13;;;27.80;37.70;;;;;;5055253;28;20412;-82
2023/08/12 08:43:45;;;;;;;105.37;2.83;;;28.30;36.60;;;;;;5054573;28;20191;-82
2023/08/12 08:46:15;;;;;;;105.40;2.80;;;28.80;35.50;;;;;;5053799;28;20421;-82
2023/08/12 08:48:42;;;;;;;105.30;2.70;;;29.10;34.20;;;;;;5058220;28;20972;-82
2023/08/12 08:51:10;;;;;;;105.43;2.80;;;29.30;33.80;;;;;;5059245;28;20854;-81
2023/08/12 08:53:39;;;;;;;105.37;2.67;;;29.00;33.80;;;;;;5061514;28;20449;-82
2023/08/12 08:56:12;;;;;;;105.47;3.07;;;28.60;35.30;;;;;;5058229;28;20496;-82
2023/08/12 08:58:39;;;;;;;105.07;3.07;;;28.30;33.90;;;;;;5059741;28;20406;-82
2023/08/12 09:01:06;;;;;;;104.50;2.60;;;28.50;35.20;;;;;;5058965;28;20935;-81
2023/08/12 09:03:34;;;;;;;105.00;3.10;;;28.90;35.40;;;;;;5058289;28;20493;-81
2023/08/12 09:06:00;;;;;;;105.40;2.97;;;29.30;33.60;;;;;;5040455;28;20406;-81
2023/08/12 09:08:27;;;;;;;104.77;2.83;;;29.70;31.50;;;;;;5057590;28;20453;-81
2023/08/12 09:10:53;;;;;;;105.50;3.03;;;29.90;30.90;;;;;;5057470;28;20604;-81
2023/08/12 09:13:19;;;;;;;104.53;2.83;;;30.10;29.10;;;;;;5056105;28;20426;-81
2023/08/12 09:15:44;;;;;;;104.77;2.97;;;29.50;30.90;;;;;;5056878;28;20425;-81
2023/08/12 09:18:10;;;;;;;105.07;3.07;;;29.20;30.80;;;;;;5055446;28;20208;-81
2023/08/12 09:20:36;;;;;;;104.27;2.50;;;29.10;30.40;;;;;;5037213;28;20225;-82
2023/08/12 09:23:02;;;;;;;105.07;2.97;;;29.90;29.40;;;;;;5055152;28;20182;-81
2023/08/12 09:25:29;;;;;;;104.40;2.77;;;29.90;29.90;;;;;;5054863;28;20418;-82
2023/08/12 09:27:58;;;;;;;104.00;2.60;;;30.10;29.40;;;;;;5054773;28;20472;-81
2023/08/12 09:30:23;;;;;;;104.07;2.87;;;30.20;30.40;;;;;;5055866;28;20434;-81
2023/08/12 09:33:03;;;;;;;104.20;2.93;;;30.50;30.70;;;;;;5057241;28;20413;-82
2023/08/12 09:35:34;;;;;;;103.97;2.80;;;30.80;29.90;;;;;;5056033;28;20175;-81
2023/08/12 09:38:02;;;;;;;103.77;2.57;;;30.90;28.90;;;;;;5056864;28;20444;-81
2023/08/12 09:40:28;;;;;;;104.77;2.83;;;31.00;28.90;;;;;;5056494;28;20410;-81
2023/08/12 09:42:54;;;;;;;103.87;2.63;;;31.00;29.80;;;;;;5056196;28;20418;-82
2023/08/12 09:45:24;;;;;;;104.80;2.97;;;31.00;29.60;;;;;;5038254;28;20270;-82
2023/08/12 09:47:49;;;;;;;103.30;2.40;;;31.20;29.70;;;;;;5055842;28;20449;-81
2023/08/12 09:50:15;;;;;;;104.37;3.00;;;31.20;31.20;;;;;;5056766;28;20920;-81
2023/08/12 09:52:40;;;;;;;103.77;2.70;;;30.90;29.50;;;;;;5055787;28;20199;-81
2023/08/12 09:55:08;;;;;;;103.77;2.60;;;30.70;29.50;;;;;;5055926;28;20215;-81
2023/08/12 09:57:41;;;;;;;103.70;2.70;;;30.50;29.20;;;;;;5056390;28;20632;-82
2023/08/12 10:00:12;;;;;;;103.70;2.70;;;30.20;29.50;;;;;;5055394;28;20430;-81
2023/08/12 10:02:46;;;;;;;103.70;2.47;;;30.30;29.40;;;;;;5056366;28;20422;-81
2023/08/12 10:05:17;;;;;;;103.10;2.30;;;30.10;29.50;;;;;;5056993;28;20499;-81
2023/08/12 10:07:45;;;;;;;103.87;3.00;;;30.10;31.20;;;;;;5058395;28;20764;-81
2023/08/12 10:10:12;;;;;;;103.13;2.40;;;30.60;29.90;;;;;;5056047;28;20421;-82
2023/08/12 10:12:39;;;;;;;103.70;2.60;;;30.00;30.00;;;;;;5055825;28;20411;-82
2023/08/12 10:15:06;;;;;;;103.40;2.73;;;29.40;32.10;;;;;;5056308;28;20426;-81
2023/08/12 10:17:33;;;;;;;103.40;2.60;;;29.50;31.00;;;;;;5056006;28;20548;-81
2023/08/12 10:20:02;;;;;;;103.07;2.73;;;30.30;31.20;;;;;;5055866;28;20460;-81
2023/08/12 10:22:30;;;;;;;103.00;2.47;;;30.50;29.90;;;;;;5055585;28;20790;-81
2023/08/12 10:24:58;;;;;;;103.27;2.60;;;30.70;28.60;;;;;;5055791;28;20499;-82
2023/08/12 10:27:25;;;;;;;105.63;3.80;;;30.50;28.30;;;;;;5055749;28;20481;-81
2023/08/12 10:29:50;;;;;;;102.90;2.50;;;30.80;26.80;;;;;;5059956;28;20463;-81
2023/08/12 10:32:16;;;;;;;103.03;2.67;;;30.70;28.10;;;;;;5055375;28;20418;-81
2023/08/12 10:34:42;;;;;;;103.07;2.80;;;30.40;28.00;;;;;;5055619;28;20234;-82
2023/08/12 10:37:10;;;;;;;102.90;2.60;;;30.30;28.60;;;;;;5054826;28;20176;-81
2023/08/12 10:39:36;;;;;;;103.70;3.03;;;30.00;29.10;;;;;;5055391;28;20414;-81
2023/08/12 10:42:02;;;;;;;103.20;3.00;;;29.50;30.00;;;;;;5053339;28;20421;-82
2023/08/12 10:44:51;;;;;;;102.97;2.80;;;29.60;30.50;;;;;;5053378;28;20442;-82
2023/08/12 10:47:17;;;;;;;103.50;2.80;;;30.00;31.50;;;;;;5052986;28;20179;-81
2023/08/12 10:49:47;;;;;;;102.77;2.63;;;30.50;29.50;;;;;;5053481;28;20428;-82
2023/08/12 10:52:45;;;;;;;103.30;2.80;;;30.70;28.10;;;;;;5052829;28;20406;-81
2023/08/12 10:55:24;;;;;;;108.70;3.27;;;30.50;27.40;;;;;;5041243;28;20441;-82
2023/08/12 10:57:54;;;;;;;107.60;2.73;;;30.40;26.10;;;;;;5059525;28;20551;-82
2023/08/12 11:00:27;;;;;;;103.10;2.37;;;30.10;26.80;;;;;;5055703;28;20418;-83
2023/08/12 11:02:54;;;;;;;103.43;2.53;;;29.80;26.10;;;;;;5055926;28;20414;-83
2023/08/12 11:05:20;;;;;;;103.10;2.93;;;29.80;26.60;;;;;;5058487;28;20418;-81
2023/08/12 11:08:00;;;;;;;102.57;2.50;;;29.60;27.30;;;;;;5057509;28;20857;-82
2023/08/12 11:10:28;;;;;;;102.90;2.67;;;30.00;26.60;;;;;;5058663;28;20794;-82
2023/08/12 11:12:54;;;;;;;102.27;2.40;;;29.80;27.60;;;;;;5057724;28;20413;-82
2023/08/12 11:15:41;;;;;;;101.87;2.30;;;29.90;27.90;;;;;;5055016;28;20501;-82
2023/08/12 11:18:12;;;;;;;101.77;2.20;;;29.70;27.40;;;;;;5055859;28;20402;-82
2023/08/12 11:20:38;;;;;;;101.50;2.10;;;30.30;27.50;;;;;;5055974;28;20473;-82
2023/08/12 11:23:06;;;;;;;102.03;2.23;;;30.60;24.40;;;;;;5053973;28;20789;-82
2023/08/12 11:25:33;;;;;;;103.10;2.80;;;30.70;24.80;;;;;;5054991;28;20475;-82
2023/08/12 11:27:59;;;;;;;101.33;2.10;;;31.30;24.80;;;;;;5055004;28;20514;-82
2023/08/12 11:30:26;;;;;;;101.30;2.23;;;31.70;23.00;;;;;;5053745;28;20820;-82
2023/08/12 11:32:54;;;;;;;102.23;2.50;;;32.30;21.60;;;;;;5054167;28;20186;-82
2023/08/12 11:35:21;;;;;;;101.47;2.23;;;32.20;21.50;;;;;;5054077;28;20416;-82
2023/08/12 11:37:55;;;;;;;101.17;2.20;;;33.20;20.50;;;;;;5053160;28;20529;-82
2023/08/12 11:40:21;;;;;;;100.87;2.13;;;33.40;20.00;;;;;;5053115;28;20404;-83
2023/08/12 11:42:49;;;;;;;100.00;1.97;;;34.00;19.20;;;;;;5053614;28;20410;-82
2023/08/12 11:45:18;;;;;;;100.30;2.30;;;34.30;18.60;;;;;;5053059;28;20675;-82
2023/08/12 11:47:44;;;;;;;99.60;2.00;;;33.90;19.40;;;;;;5053570;28;20441;-82
2023/08/12 11:50:12;;;;;;;99.43;1.97;;;33.80;18.10;;;;;;5053911;28;20468;-82
2023/08/12 11:52:39;;;;;;;99.30;2.00;;;32.50;19.40;;;;;;5053855;28;20441;-83
2023/08/12 11:55:06;;;;;;;99.43;2.27;;;32.40;19.90;;;;;;5053217;28;20466;-83
2023/08/12 11:57:36;;;;;;;99.50;2.33;;;32.50;19.90;;;;;;5053216;28;20414;-82
2023/08/12 12:00:13;;;;;;;99.37;2.20;;;32.70;20.00;;;;;;5052782;28;20410;-82
2023/08/12 12:02:49;;;;;;;99.57;2.40;;;32.70;20.10;;;;;;5053512;28;20755;-82
2023/08/12 12:05:16;;;;;;;100.27;2.70;;;32.90;20.40;;;;;;5053891;28;20494;-82
2023/08/12 12:07:43;;;;;;;99.17;2.03;;;32.20;21.60;;;;;;5058095;28;20845;-82
2023/08/12 12:10:15;;;;;;;99.37;2.13;;;31.70;22.10;;;;;;5054568;28;20750;-82
2023/08/12 12:12:41;;;;;;;100.17;2.20;;;31.10;23.20;;;;;;5051286;28;20427;-81
2023/08/12 12:15:07;;;;;;;99.93;2.30;;;30.80;25.60;;;;;;5048092;28;20438;-82
2023/08/12 12:17:33;;;;;;;100.47;2.50;;;31.20;24.30;;;;;;5051475;28;20449;-82
2023/08/12 12:20:00;;;;;;;100.40;2.60;;;31.00;24.50;;;;;;5051410;28;20441;-82
2023/08/12 12:22:30;;;;;;;100.10;2.33;;;30.90;24.70;;;;;;5052583;28;20183;-81
2023/08/12 12:24:59;;;;;;;102.10;2.60;;;30.70;25.00;;;;;;5057971;28;20497;-82
2023/08/12 12:27:25;;;;;;;100.07;2.27;;;30.40;25.20;;;;;;5057684;28;20481;-81